.
WxDataArchive / Data Records for 2010-03-22
2010-03-21 March 2010 2010-03-23

Data Records for Monday, 22 March 2010

Time	Temp	Chill	HIndex	Humid	Dewpt	 Wind 	HiWind	WindDir	Rain 	Barom 
-----	----	-----	------	-----	-----	------	------	-------	-----	----- 
00:00	42.3	39.2	42.3	72	33.9	5	13	112	0.00	29.941 
00:05	42.3	42.3	42.3	69	32.9	3	10	112	0.00	29.941 
00:10	42.3	42.3	42.3	69	32.9	2	9	112	0.00	29.941 
00:15	42.3	42.3	42.3	69	32.9	3	10	22	0.00	29.934 
00:20	42.3	40.0	42.3	68	32.5	4	12	112	0.00	29.934 
00:25	42.2	42.2	42.2	69	32.8	3	10	112	0.00	29.934 
00:30	42.2	42.2	42.2	69	32.8	3	14	45	0.00	29.926 
00:35	42.2	42.2	42.2	69	32.8	3	8	112	0.00	29.926 
00:40	42.1	42.1	42.1	69	32.7	2	10	112	0.00	29.926 
00:45	42.1	42.1	42.1	69	32.7	2	6	112	0.00	29.921 
00:50	41.9	41.9	41.9	68	32.1	3	7	112	0.00	29.921 
00:55	41.9	41.9	41.9	68	32.1	3	10	90	0.00	29.921 
01:00	41.9	41.9	41.9	68	32.1	3	7	112	0.00	29.912 
01:05	41.9	39.5	41.9	68	32.1	4	9	90	0.00	29.912 
01:10	41.9	41.9	41.9	67	31.8	3	11	112	0.00	29.912 
01:15	41.9	41.9	41.9	68	32.1	3	7	90	0.00	29.922 
01:20	41.9	41.9	41.9	68	32.1	3	11	112	0.00	29.922 
01:25	41.8	39.4	41.8	69	32.4	4	10	112	0.00	29.922 
01:30	41.6	39.2	41.6	70	32.6	4	11	90	0.00	29.919 
01:35	41.5	41.5	41.5	72	33.2	2	5	112	0.00	29.919 
01:40	41.3	41.3	41.3	73	33.3	3	8	90	0.00	29.919 
01:45	41.1	41.1	41.1	73	33.1	3	8	112	0.00	29.911 
01:50	41.1	41.1	41.1	74	33.5	3	9	90	0.00	29.911 
01:55	40.9	40.9	40.9	73	32.9	3	10	90	0.00	29.911 
02:00	40.9	40.9	40.9	73	32.9	2	5	112	0.00	29.905 
02:05	40.9	40.9	40.9	72	32.6	2	8	112	0.00	29.905 
02:10	40.9	40.9	40.9	72	32.6	2	9	22	0.00	29.905 
02:15	40.9	40.9	40.9	71	32.2	3	11	112	0.00	29.888 
02:20	40.9	40.9	40.9	71	32.2	2	6	22	0.00	29.888 
02:25	40.9	40.9	40.9	71	32.2	3	10	90	0.00	29.888 
02:30	40.9	40.9	40.9	70	31.9	2	7	22	0.00	29.880 
02:35	41.1	41.1	41.1	70	32.1	3	6	112	0.00	29.880 
02:40	40.9	40.9	40.9	70	31.9	2	5	112	0.00	29.880 
02:45	40.9	40.9	40.9	70	31.9	2	7	112	0.00	29.876 
02:50	40.9	40.9	40.9	70	31.9	3	7	112	0.00	29.876 
02:55	40.9	40.9	40.9	70	31.9	2	8	112	0.00	29.876 
03:00	40.9	40.9	40.9	70	31.9	3	7	90	0.00	29.866 
03:05	40.9	40.9	40.9	70	31.9	3	8	45	0.00	29.866 
03:10	40.9	38.4	40.9	70	31.9	4	11	112	0.00	29.866 
03:15	40.9	40.9	40.9	70	31.9	2	7	22	0.00	29.865 
03:20	40.9	40.9	40.9	70	31.9	3	7	90	0.00	29.865 
03:25	40.9	40.9	40.9	70	31.9	3	6	90	0.00	29.865 
03:30	40.9	40.9	40.9	70	31.9	3	9	90	0.00	29.861 
03:35	40.9	40.9	40.9	70	31.9	3	9	112	0.00	29.861 
03:40	40.9	40.9	40.9	71	32.2	3	6	112	0.00	29.861 
03:45	40.9	38.4	40.9	71	32.2	4	11	90	0.00	29.858 
03:50	40.9	40.9	40.9	71	32.2	3	11	112	0.00	29.858 
03:55	40.8	40.8	40.8	72	32.5	3	10	90	0.00	29.858 
04:00	40.8	38.2	40.8	72	32.5	4	12	90	0.00	29.854 
04:05	40.6	38.0	40.6	72	32.3	4	13	112	0.00	29.854 
04:10	40.6	40.6	40.6	73	32.6	2	9	90	0.00	29.854 
04:15	40.6	38.0	40.6	73	32.6	4	12	45	0.00	29.841 
04:20	40.5	40.5	40.5	74	32.9	2	7	22	0.00	29.841 
04:25	40.5	37.9	40.5	74	32.9	4	11	112	0.00	29.841 
04:30	40.5	40.5	40.5	74	32.9	2	9	112	0.00	29.846 
04:35	40.3	40.3	40.3	74	32.7	3	9	22	0.00	29.846 
04:40	40.3	40.3	40.3	74	32.7	3	10	112	0.00	29.846 
04:45	40.3	40.3	40.3	74	32.7	2	9	90	0.00	29.841 
04:50	40.3	40.3	40.3	74	32.7	3	9	45	0.00	29.841 
04:55	40.3	40.3	40.3	74	32.7	1	9	90	0.00	29.841 
05:00	40.3	40.3	40.3	74	32.7	2	9	112	0.00	29.839 
05:05	40.3	40.3	40.3	73	32.3	2	6	0	0.00	29.839 
05:10	40.3	40.3	40.3	73	32.3	2	10	112	0.00	29.839 
05:15	40.3	40.3	40.3	73	32.3	2	6	22	0.00	29.838 
05:20	40.2	40.2	40.2	72	31.9	2	5	22	0.00	29.838 
05:25	40.1	40.1	40.1	71	31.5	3	10	45	0.00	29.838 
05:30	40.1	40.1	40.1	71	31.5	3	6	90	0.00	29.835 
05:35	40.1	40.1	40.1	72	31.8	2	9	68	0.00	29.835 
05:40	40.1	40.1	40.1	71	31.5	3	9	68	0.00	29.835 
05:45	40.2	40.2	40.2	71	31.6	2	6	45	0.00	29.834 
05:50	40.2	40.2	40.2	70	31.2	2	6	90	0.00	29.834 
05:55	40.3	37.7	40.3	69	31.0	4	13	45	0.00	29.834 
06:00	40.3	40.3	40.3	69	31.0	3	15	22	0.00	29.835 
06:05	40.5	40.5	40.5	69	31.1	2	6	90	0.00	29.835 
06:10	40.5	40.5	40.5	69	31.1	3	11	45	0.00	29.835 
06:15	40.6	40.6	40.6	69	31.2	3	7	45	0.00	29.836 
06:20	40.8	40.8	40.8	69	31.4	3	8	45	0.00	29.836 
06:25	40.8	40.8	40.8	68	31.1	3	9	68	0.00	29.836 
06:30	40.9	40.9	40.9	68	31.2	3	8	45	0.00	29.836 
06:35	41.1	41.1	41.1	68	31.4	2	9	68	0.00	29.836 
06:40	41.1	41.1	41.1	68	31.4	2	8	112	0.00	29.836 
06:45	41.2	41.2	41.2	67	31.1	2	7	112	0.00	29.834 
06:50	41.2	41.2	41.2	67	31.1	2	7	90	0.00	29.834 
06:55	41.3	41.3	41.3	66	30.8	3	15	112	0.00	29.834 
07:00	41.5	41.5	41.5	65	30.6	3	12	112	0.00	29.836 
07:05	41.6	41.6	41.6	65	30.7	2	9	45	0.00	29.836 
07:10	41.6	41.6	41.6	64	30.3	3	11	112	0.00	29.836 
07:15	41.8	41.8	41.8	64	30.5	3	6	90	0.00	29.838 
07:20	41.8	39.4	41.8	62	29.7	4	15	112	0.00	29.838 
07:25	41.9	39.5	41.9	61	29.4	4	10	22	0.00	29.838 
07:30	41.9	41.9	41.9	60	29.0	3	6	22	0.00	29.831 
07:35	41.9	39.5	41.9	58	28.2	4	13	45	0.00	29.831 
07:40	42.1	39.7	42.1	57	28.0	4	12	112	0.00	29.831 
07:45	42.1	42.1	42.1	54	26.7	3	9	90	0.00	29.834 
07:50	42.2	39.9	42.2	54	26.8	4	12	112	0.00	29.834 
07:55	42.2	39.1	42.2	53	26.3	5	14	112	0.00	29.834 
08:00	42.3	39.2	42.3	53	26.4	5	11	112	0.00	29.843 
08:05	42.2	38.4	42.2	52	25.9	6	15	112	0.00	29.843 
08:10	42.1	38.3	42.1	52	25.8	6	12	112	0.00	29.843 
08:15	41.9	38.0	41.9	53	26.0	6	15	90	0.00	29.847 
08:20	41.9	38.0	41.9	53	26.0	6	15	112	0.00	29.847 
08:25	41.8	38.6	41.8	53	25.9	5	16	112	0.00	29.847 
08:30	41.6	37.7	41.6	53	25.8	6	15	112	0.00	29.847 
08:35	41.5	38.2	41.5	54	26.1	5	15	112	0.00	29.847 
08:40	41.3	38.8	41.3	55	26.4	4	10	112	0.00	29.847 
08:45	41.2	37.9	41.2	55	26.3	5	15	112	0.00	29.843 
08:50	41.1	37.8	41.1	55	26.2	5	12	112	0.00	29.843 
08:55	41.1	41.1	41.1	55	26.2	3	7	90	0.00	29.843 
09:00	41.1	41.1	41.1	55	26.2	3	12	22	0.00	29.833 
09:05	41.1	41.1	41.1	54	25.7	3	11	112	0.00	29.833 
09:10	41.1	41.1	41.1	54	25.7	3	11	22	0.00	29.833 
09:15	41.1	41.1	41.1	54	25.7	3	9	45	0.00	29.832 
09:20	41.2	41.2	41.2	54	25.8	2	6	45	0.00	29.832 
09:25	41.2	41.2	41.2	53	25.4	3	7	45	0.00	29.832 
09:30	41.2	38.7	41.2	52	24.9	4	10	112	0.00	29.829 
09:35	41.3	38.8	41.3	51	24.6	4	16	45	0.00	29.829 
09:40	41.3	41.3	41.3	52	25.0	3	13	90	0.00	29.829 
09:45	41.2	41.2	41.2	53	25.4	3	8	22	0.00	29.831 
09:50	41.2	38.7	41.2	54	25.8	4	16	22	0.00	29.831 
09:55	41.1	41.1	41.1	55	26.2	3	11	22	0.00	29.831 
10:00	40.9	40.9	40.9	55	26.0	3	9	45	0.00	29.831 
10:05	40.8	40.8	40.8	58	27.2	2	7	68	0.00	29.831 
10:10	40.8	40.8	40.8	58	27.2	3	10	45	0.00	29.831 
10:15	40.6	38.0	40.6	56	26.1	4	10	45	0.00	29.833 
10:20	40.8	40.8	40.8	58	27.2	3	13	90	0.00	29.833 
10:25	40.9	40.9	40.9	58	27.3	3	10	90	0.00	29.833 
10:30	41.1	38.6	41.1	56	26.6	4	13	68	0.00	29.831 
10:35	41.3	41.3	41.3	57	27.2	2	10	68	0.00	29.831 
10:40	41.6	39.2	41.6	56	27.1	4	12	45	0.00	29.831 
10:45	41.9	39.5	41.9	55	26.9	4	13	112	0.00	29.825 
10:50	41.9	39.5	41.9	54	26.5	4	11	112	0.00	29.825 
10:55	41.9	39.5	41.9	54	26.5	4	13	112	0.00	29.825 
11:00	41.8	39.4	41.8	52	25.5	4	10	112	0.00	29.819 
11:05	41.8	41.8	41.8	51	25.0	3	10	68	0.00	29.819 
11:10	41.9	39.5	41.9	50	24.6	4	10	22	0.00	29.819 
11:15	42.2	39.9	42.2	48	23.9	4	13	45	0.00	29.816 
11:20	42.5	39.4	42.5	47	23.7	5	9	68	0.00	29.816 
11:25	42.6	42.6	42.6	49	24.8	3	9	68	0.00	29.816 
11:30	42.6	40.3	42.6	47	23.8	4	12	112	0.00	29.816 
11:35	42.8	42.8	42.8	47	24.0	3	7	45	0.00	29.816 
11:40	42.6	39.5	42.6	46	23.3	5	15	112	0.00	29.816 
11:45	42.6	40.3	42.6	47	23.8	4	11	112	0.00	29.816 
11:50	42.6	40.3	42.6	47	23.8	4	14	112	0.00	29.816 
11:55	42.5	42.5	42.5	48	24.2	3	12	22	0.00	29.816 
12:00	42.3	42.3	42.3	48	24.0	3	8	112	0.00	29.813 
12:05	42.3	42.3	42.3	47	23.5	3	10	45	0.00	29.813 
12:10	42.3	42.3	42.3	48	24.0	2	5	112	0.00	29.813 
12:15	42.5	40.2	42.5	47	23.7	4	13	90	0.00	29.805 
12:20	42.5	40.2	42.5	47	23.7	4	12	90	0.00	29.805 
12:25	42.3	42.3	42.3	47	23.5	3	7	22	0.00	29.805 
12:30	42.5	42.5	42.5	51	25.7	3	9	22	0.00	29.803 
12:35	42.3	42.3	42.3	52	25.9	2	11	45	0.00	29.803 
12:40	42.3	42.3	42.3	52	25.9	3	6	45	0.00	29.803 
12:45	42.3	42.3	42.3	53	26.4	2	6	90	0.00	29.801 
12:50	42.1	42.1	42.1	56	27.5	3	11	90	0.00	29.801 
12:55	41.8	41.8	41.8	56	27.3	3	12	112	0.00	29.801 
13:00	41.6	41.6	41.6	58	27.9	3	9	22	0.00	29.800 
13:05	41.6	41.6	41.6	58	27.9	3	11	22	0.00	29.800 
13:10	41.6	39.2	41.6	62	29.6	4	11	90	0.00	29.800 
13:15	41.3	41.3	41.3	64	30.1	3	7	112	0.00	29.801 
13:20	41.2	41.2	41.2	66	30.7	2	6	112	0.00	29.801 
13:25	40.9	40.9	40.9	65	30.1	3	15	112	0.00	29.801 
13:30	40.8	38.2	40.8	65	30.0	4	14	112	0.00	29.802 
13:35	40.3	40.3	40.3	68	30.6	3	11	90	0.01	29.802 
13:40	40.1	40.1	40.1	70	31.1	2	6	0	0.00	29.802 
13:45	39.9	39.9	39.9	73	32.0	2	7	90	0.01	29.804 
13:50	39.8	39.8	39.8	74	32.2	2	10	90	0.00	29.804 
13:55	39.6	39.6	39.6	75	32.3	1	5	112	0.00	29.804 
14:00	39.6	39.6	39.6	75	32.3	2	5	68	0.01	29.801 
14:05	39.5	39.5	39.5	76	32.6	2	5	22	0.01	29.801 
14:10	39.5	39.5	39.5	77	32.9	2	6	112	0.00	29.801 
14:15	39.3	39.3	39.3	77	32.7	3	7	112	0.00	29.800 
14:20	39.1	39.1	39.1	77	32.5	3	6	112	0.01	29.800 
14:25	38.9	38.9	38.9	79	33.0	2	10	68	0.00	29.800 
14:30	38.9	38.9	38.9	80	33.3	1	5	45	0.01	29.797 
14:35	38.9	38.9	38.9	81	33.6	1	5	45	0.00	29.797 
14:40	38.8	38.8	38.8	81	33.5	2	6	22	0.01	29.797 
14:45	38.8	38.8	38.8	82	33.8	2	5	112	0.00	29.795 
14:50	38.8	38.8	38.8	83	34.1	2	5	135	0.00	29.795 
14:55	38.8	38.8	38.8	83	34.1	2	5	90	0.01	29.795 
15:00	38.8	38.8	38.8	84	34.4	2	6	112	0.01	29.796 
15:05	38.8	38.8	38.8	84	34.4	2	4	90	0.00	29.796 
15:10	38.8	38.8	38.8	84	34.4	2	6	90	0.00	29.796 
15:15	38.8	38.8	38.8	85	34.7	3	6	112	0.01	29.796 
15:20	38.6	38.6	38.6	85	34.5	3	9	112	0.00	29.796 
15:25	38.6	38.6	38.6	85	34.5	2	10	112	0.01	29.796 
15:30	38.5	38.5	38.5	85	34.4	3	12	90	0.00	29.794 
15:35	38.5	38.5	38.5	85	34.4	1	7	90	0.00	29.794 
15:40	38.3	38.3	38.3	85	34.2	3	9	112	0.01	29.794 
15:45	38.3	38.3	38.3	86	34.5	1	6	112	0.00	29.803 
15:50	38.2	38.2	38.2	86	34.4	2	7	112	0.01	29.803 
15:55	38.2	38.2	38.2	87	34.7	1	5	112	0.00	29.803 
16:00	38.2	38.2	38.2	87	34.7	2	5	112	0.01	29.804 
16:05	38.2	38.2	38.2	88	35.0	2	10	112	0.00	29.804 
16:10	38.2	38.2	38.2	88	35.0	1	5	112	0.00	29.804 
16:15	38.2	38.2	38.2	88	35.0	1	5	112	0.01	29.804 
16:20	38.2	38.2	38.2	88	35.0	1	6	45	0.00	29.804 
16:25	38.2	38.2	38.2	88	35.0	2	5	112	0.00	29.804 
16:30	38.3	38.3	38.3	88	35.1	1	5	45	0.00	29.805 
16:35	38.3	38.3	38.3	88	35.1	1	5	135	0.00	29.805 
16:40	38.3	38.3	38.3	88	35.1	1	4	45	0.00	29.805 
16:45	38.5	38.5	38.5	89	35.5	1	4	22	0.00	29.804 
16:50	38.6	38.6	38.6	89	35.6	1	4	112	0.00	29.804 
16:55	38.6	38.6	38.6	88	35.4	2	9	112	0.00	29.804 
17:00	38.8	38.8	38.8	88	35.6	1	6	68	0.00	29.804 
17:05	38.8	38.8	38.8	88	35.6	1	5	45	0.00	29.804 
17:10	38.6	38.6	38.6	88	35.4	1	4	112	0.00	29.804 
17:15	38.6	38.6	38.6	88	35.4	1	3	45	0.00	29.807 
17:20	38.6	38.6	38.6	88	35.4	1	3	112	0.00	29.807 
17:25	38.8	38.8	38.8	88	35.6	0	2	112	0.00	29.807 
17:30	38.8	38.8	38.8	88	35.6	0	2	90	0.00	29.806 
17:35	38.8	38.8	38.8	88	35.6	0	2	90	0.01	29.806 
17:40	38.8	38.8	38.8	88	35.6	0	2	90	0.00	29.806 
17:45	38.9	38.9	38.9	88	35.7	1	2	45	0.00	29.805 
17:50	38.9	38.9	38.9	88	35.7	1	3	90	0.00	29.805 
17:55	38.9	38.9	38.9	88	35.7	0	1	90	0.00	29.805 
18:00	38.9	38.9	38.9	88	35.7	1	3	90	0.00	29.806 
18:05	38.9	38.9	38.9	89	35.9	0	2	22	0.00	29.806 
18:10	38.9	38.9	38.9	88	35.7	1	2	158	0.00	29.806 
18:15	38.9	38.9	38.9	88	35.7	1	3	45	0.00	29.807 
18:20	38.9	38.9	38.9	88	35.7	1	4	135	0.00	29.807 
18:25	38.9	38.9	38.9	88	35.7	1	3	45	0.00	29.807 
18:30	39.1	39.1	39.1	88	35.9	2	5	112	0.00	29.812 
18:35	39.1	39.1	39.1	88	35.9	1	3	90	0.00	29.812 
18:40	39.1	39.1	39.1	88	35.9	1	4	22	0.00	29.812 
18:45	39.1	39.1	39.1	88	35.9	1	3	68	0.00	29.817 
18:50	39.1	39.1	39.1	89	36.1	0	1	68	0.00	29.817 
18:55	39.1	39.1	39.1	89	36.1	0	1	68	0.00	29.817 
19:00	39.1	39.1	39.1	89	36.1	0	2	68	0.00	29.820 
19:05	39.1	39.1	39.1	89	36.1	0	1	68	0.00	29.820 
19:10	39.1	39.1	39.1	89	36.1	0	1	68	0.00	29.820 
19:15	39.1	39.1	39.1	89	36.1	0	2	45	0.00	29.820 
19:20	39.1	39.1	39.1	89	36.1	0	2	45	0.00	29.820 
19:25	39.1	39.1	39.1	89	36.1	0	3	45	0.00	29.820 
19:30	39.1	39.1	39.1	89	36.1	0	4	45	0.00	29.824 
19:35	39.2	39.2	39.2	89	36.2	1	4	22	0.00	29.824 
19:40	39.2	39.2	39.2	88	35.9	1	3	45	0.00	29.824 
19:45	39.2	39.2	39.2	88	35.9	1	3	112	0.00	29.823 
19:50	39.2	39.2	39.2	88	35.9	1	4	45	0.00	29.823 
19:55	39.2	39.2	39.2	88	35.9	1	3	45	0.00	29.823 
20:00	39.2	39.2	39.2	88	35.9	1	5	112	0.00	29.820 
20:05	39.2	39.2	39.2	87	35.7	2	6	90	0.00	29.820 
20:10	39.2	39.2	39.2	87	35.7	0	3	90	0.00	29.820 
20:15	39.2	39.2	39.2	88	35.9	0	3	90	0.00	29.822 
20:20	39.2	39.2	39.2	88	35.9	0	2	90	0.00	29.822 
20:25	39.2	39.2	39.2	88	35.9	0	1	90	0.00	29.822 
20:30	39.2	39.2	39.2	87	35.7	0	3	90	0.00	29.825 
20:35	39.1	39.1	39.1	87	35.6	0	4	112	0.00	29.825 
20:40	39.1	39.1	39.1	87	35.6	0	1	0	0.00	29.825 
20:45	39.1	39.1	39.1	87	35.6	0	1	0	0.00	29.833 
20:50	39.1	39.1	39.1	87	35.6	0	3	45	0.00	29.833 
20:55	39.1	39.1	39.1	86	35.3	1	5	112	0.00	29.833 
21:00	39.2	39.2	39.2	86	35.4	0	1	112	0.00	29.833 
21:05	39.2	39.2	39.2	86	35.4	1	3	112	0.00	29.833 
21:10	39.2	39.2	39.2	87	35.7	0	2	112	0.00	29.833 
21:15	39.2	39.2	39.2	87	35.7	1	4	112	0.00	29.830 
21:20	39.2	39.2	39.2	87	35.7	0	3	22	0.00	29.830 
21:25	39.1	39.1	39.1	87	35.6	2	6	22	0.00	29.830 
21:30	39.2	39.2	39.2	87	35.7	0	2	22	0.00	29.834 
21:35	39.2	39.2	39.2	87	35.7	1	3	22	0.00	29.834 
21:40	39.2	39.2	39.2	87	35.7	0	2	338	0.00	29.834 
21:45	39.2	39.2	39.2	87	35.7	0	3	0	0.00	29.836 
21:50	39.2	39.2	39.2	87	35.7	0	4	292	0.00	29.836 
21:55	39.3	39.3	39.3	87	35.8	0	3	292	0.00	29.836 
22:00	39.2	39.2	39.2	87	35.7	1	10	45	0.00	29.845 
22:05	39.1	39.1	39.1	86	35.3	1	5	45	0.00	29.845 
22:10	39.1	39.1	39.1	86	35.3	1	4	315	0.00	29.845 
22:15	39.1	39.1	39.1	86	35.3	1	5	68	0.00	29.850 
22:20	38.9	38.9	38.9	86	35.1	1	4	22	0.00	29.850 
22:25	38.8	38.8	38.8	87	35.3	0	3	45	0.00	29.850 
22:30	38.6	38.6	38.6	87	35.1	1	3	315	0.00	29.852 
22:35	38.5	38.5	38.5	88	35.3	0	2	22	0.00	29.852 
22:40	38.3	38.3	38.3	88	35.1	1	4	248	0.00	29.852 
22:45	38.2	38.2	38.2	88	35.0	1	3	315	0.00	29.854 
22:50	38.0	38.0	38.0	89	35.1	1	3	90	0.00	29.854 
22:55	37.9	37.9	37.9	89	35.0	1	3	90	0.00	29.854 
23:00	37.9	37.9	37.9	89	35.0	1	3	135	0.00	29.851 
23:05	37.9	37.9	37.9	89	35.0	1	4	22	0.00	29.851 
23:10	37.9	37.9	37.9	89	35.0	0	2	112	0.00	29.851 
23:15	37.8	37.8	37.8	88	34.6	1	3	68	0.00	29.847 
23:20	37.8	37.8	37.8	88	34.6	0	2	68	0.00	29.847 
23:25	37.8	37.8	37.8	88	34.6	0	3	90	0.00	29.847 
23:30	37.8	37.8	37.8	88	34.6	0	2	315	0.00	29.836 
23:35	37.8	37.8	37.8	88	34.6	0	3	315	0.00	29.836 
23:40	37.8	37.8	37.8	88	34.6	0	3	315	0.00	29.836 
23:45	37.8	37.8	37.8	88	34.6	0	2	0	0.00	29.835 
23:50	37.9	37.9	37.9	88	34.7	0	2	0	0.00	29.835 
23:55	37.9	37.9	37.9	88	34.7	1	4	248	0.00	29.835 

CoCoRaHS
IN-AL-39
A2 Web Hosting
Creative Commons License
GoDaddy
search engine by freefind advanced

loaded 2018-11-17 18:12:30 • last modified 2010-11-18 10:43:29
Privacy PolicyDisclaimer
• wx.awcolley.com is powered by PmWiki v.2002016 •
• all content (unless otherwise noted) © 2018 A W Colley